sensor_id;sensor_type;location;lat;lon;timestamp;P1;durP1;ratioP1;P2;durP2;ratioP2
10339;SDS011;5215;48.676;9.022;2022-07-18T00:00:57;2.42;;;2.03;;
10339;SDS011;5215;48.676;9.022;2022-07-18T00:03:26;4.10;;;2.35;;
10339;SDS011;5215;48.676;9.022;2022-07-18T00:05:52;4.03;;;2.50;;
10339;SDS011;5215;48.676;9.022;2022-07-18T00:08:19;2.95;;;2.30;;
10339;SDS011;5215;48.676;9.022;2022-07-18T00:10:45;1.92;;;1.83;;
10339;SDS011;5215;48.676;9.022;2022-07-18T00:13:12;2.95;;;2.03;;
10339;SDS011;5215;48.676;9.022;2022-07-18T00:15:39;2.03;;;1.90;;
10339;SDS011;5215;48.676;9.022;2022-07-18T00:18:05;2.17;;;1.98;;
10339;SDS011;5215;48.676;9.022;2022-07-18T00:20:33;2.08;;;1.90;;
10339;SDS011;5215;48.676;9.022;2022-07-18T00:23:00;2.00;;;1.90;;
10339;SDS011;5215;48.676;9.022;2022-07-18T00:25:26;2.17;;;1.98;;
10339;SDS011;5215;48.676;9.022;2022-07-18T00:27:53;2.35;;;2.05;;
10339;SDS011;5215;48.676;9.022;2022-07-18T00:30:19;3.42;;;1.90;;
10339;SDS011;5215;48.676;9.022;2022-07-18T00:32:46;4.93;;;2.20;;
10339;SDS011;5215;48.676;9.022;2022-07-18T00:35:13;3.38;;;1.88;;
10339;SDS011;5215;48.676;9.022;2022-07-18T00:37:40;3.53;;;1.65;;
10339;SDS011;5215;48.676;9.022;2022-07-18T00:40:08;2.50;;;1.88;;
10339;SDS011;5215;48.676;9.022;2022-07-18T00:42:35;2.53;;;1.88;;
10339;SDS011;5215;48.676;9.022;2022-07-18T00:45:02;2.10;;;1.90;;
10339;SDS011;5215;48.676;9.022;2022-07-18T00:47:30;2.15;;;2.00;;
10339;SDS011;5215;48.676;9.022;2022-07-18T00:49:57;3.17;;;1.90;;
10339;SDS011;5215;48.676;9.022;2022-07-18T00:52:23;2.55;;;1.65;;
10339;SDS011;5215;48.676;9.022;2022-07-18T00:54:51;1.73;;;1.63;;
10339;SDS011;5215;48.676;9.022;2022-07-18T00:57:18;2.30;;;1.77;;
10339;SDS011;5215;48.676;9.022;2022-07-18T00:59:45;3.63;;;2.00;;
10339;SDS011;5215;48.676;9.022;2022-07-18T01:02:30;1.80;;;1.70;;
10339;SDS011;5215;48.676;9.022;2022-07-18T01:04:56;3.72;;;2.55;;
10339;SDS011;5215;48.676;9.022;2022-07-18T01:07:23;2.50;;;2.30;;
10339;SDS011;5215;48.676;9.022;2022-07-18T01:09:50;2.65;;;2.42;;
10339;SDS011;5215;48.676;9.022;2022-07-18T01:12:17;3.58;;;2.15;;
10339;SDS011;5215;48.676;9.022;2022-07-18T01:14:45;2.05;;;1.83;;
10339;SDS011;5215;48.676;9.022;2022-07-18T01:17:13;3.90;;;1.80;;
10339;SDS011;5215;48.676;9.022;2022-07-18T01:19:41;3.78;;;2.17;;
10339;SDS011;5215;48.676;9.022;2022-07-18T01:22:09;2.20;;;1.92;;
10339;SDS011;5215;48.676;9.022;2022-07-18T01:24:36;4.45;;;2.30;;
10339;SDS011;5215;48.676;9.022;2022-07-18T01:27:03;2.30;;;1.90;;
10339;SDS011;5215;48.676;9.022;2022-07-18T01:29:31;4.57;;;1.95;;
10339;SDS011;5215;48.676;9.022;2022-07-18T01:32:02;2.33;;;1.88;;
10339;SDS011;5215;48.676;9.022;2022-07-18T01:34:30;2.10;;;1.90;;
10339;SDS011;5215;48.676;9.022;2022-07-18T01:36:56;4.05;;;2.30;;
10339;SDS011;5215;48.676;9.022;2022-07-18T01:39:24;3.20;;;2.13;;
10339;SDS011;5215;48.676;9.022;2022-07-18T01:41:54;2.42;;;1.98;;
10339;SDS011;5215;48.676;9.022;2022-07-18T01:44:21;5.85;;;1.80;;
10339;SDS011;5215;48.676;9.022;2022-07-18T01:46:48;2.25;;;1.83;;
10339;SDS011;5215;48.676;9.022;2022-07-18T01:49:14;2.95;;;1.83;;
10339;SDS011;5215;48.676;9.022;2022-07-18T01:51:44;2.00;;;1.80;;
10339;SDS011;5215;48.676;9.022;2022-07-18T01:54:11;4.82;;;2.00;;
10339;SDS011;5215;48.676;9.022;2022-07-18T01:56:39;2.88;;;2.20;;
10339;SDS011;5215;48.676;9.022;2022-07-18T01:59:06;1.92;;;1.80;;
10339;SDS011;5215;48.676;9.022;2022-07-18T02:01:32;3.00;;;1.95;;
10339;SDS011;5215;48.676;9.022;2022-07-18T02:03:59;2.28;;;1.70;;
10339;SDS011;5215;48.676;9.022;2022-07-18T02:06:26;4.40;;;2.20;;
10339;SDS011;5215;48.676;9.022;2022-07-18T02:08:52;3.15;;;2.03;;
10339;SDS011;5215;48.676;9.022;2022-07-18T02:11:19;3.85;;;1.58;;
10339;SDS011;5215;48.676;9.022;2022-07-18T02:13:47;2.40;;;1.95;;
10339;SDS011;5215;48.676;9.022;2022-07-18T02:16:14;2.95;;;2.22;;
10339;SDS011;5215;48.676;9.022;2022-07-18T02:18:40;3.15;;;1.90;;
10339;SDS011;5215;48.676;9.022;2022-07-18T02:21:07;3.28;;;2.17;;
10339;SDS011;5215;48.676;9.022;2022-07-18T02:23:34;2.53;;;2.33;;
10339;SDS011;5215;48.676;9.022;2022-07-18T02:26:02;2.42;;;1.92;;
10339;SDS011;5215;48.676;9.022;2022-07-18T02:28:29;2.17;;;1.98;;
10339;SDS011;5215;48.676;9.022;2022-07-18T02:30:57;1.65;;;1.52;;
10339;SDS011;5215;48.676;9.022;2022-07-18T02:33:23;1.80;;;1.70;;
10339;SDS011;5215;48.676;9.022;2022-07-18T02:35:50;4.00;;;1.92;;
10339;SDS011;5215;48.676;9.022;2022-07-18T02:38:17;2.08;;;1.75;;
10339;SDS011;5215;48.676;9.022;2022-07-18T02:40:44;3.35;;;1.83;;
10339;SDS011;5215;48.676;9.022;2022-07-18T02:43:10;2.83;;;2.08;;
10339;SDS011;5215;48.676;9.022;2022-07-18T02:45:37;2.60;;;2.00;;
10339;SDS011;5215;48.676;9.022;2022-07-18T02:48:05;3.05;;;2.00;;
10339;SDS011;5215;48.676;9.022;2022-07-18T02:50:31;2.78;;;1.92;;
10339;SDS011;5215;48.676;9.022;2022-07-18T02:52:58;2.20;;;1.92;;
10339;SDS011;5215;48.676;9.022;2022-07-18T02:55:25;2.90;;;2.00;;
10339;SDS011;5215;48.676;9.022;2022-07-18T02:57:51;3.35;;;1.90;;
10339;SDS011;5215;48.676;9.022;2022-07-18T03:00:18;2.50;;;2.00;;
10339;SDS011;5215;48.676;9.022;2022-07-18T03:02:45;1.92;;;1.83;;
10339;SDS011;5215;48.676;9.022;2022-07-18T03:05:13;2.25;;;1.90;;
10339;SDS011;5215;48.676;9.022;2022-07-18T03:07:40;2.83;;;2.00;;
10339;SDS011;5215;48.676;9.022;2022-07-18T03:10:07;2.42;;;2.22;;
10339;SDS011;5215;48.676;9.022;2022-07-18T03:12:34;2.28;;;2.05;;
10339;SDS011;5215;48.676;9.022;2022-07-18T03:15:01;2.08;;;1.85;;
10339;SDS011;5215;48.676;9.022;2022-07-18T03:17:28;1.75;;;1.65;;
10339;SDS011;5215;48.676;9.022;2022-07-18T03:19:54;1.83;;;1.73;;
10339;SDS011;5215;48.676;9.022;2022-07-18T03:22:22;1.98;;;1.88;;
10339;SDS011;5215;48.676;9.022;2022-07-18T03:24:49;2.58;;;2.08;;
10339;SDS011;5215;48.676;9.022;2022-07-18T03:27:15;2.38;;;2.17;;
10339;SDS011;5215;48.676;9.022;2022-07-18T03:29:42;2.33;;;2.13;;
10339;SDS011;5215;48.676;9.022;2022-07-18T03:32:08;2.30;;;2.08;;
10339;SDS011;5215;48.676;9.022;2022-07-18T03:34:35;2.72;;;2.10;;
10339;SDS011;5215;48.676;9.022;2022-07-18T03:37:02;2.65;;;1.73;;
10339;SDS011;5215;48.676;9.022;2022-07-18T03:39:30;3.30;;;2.17;;
10339;SDS011;5215;48.676;9.022;2022-07-18T03:41:56;2.00;;;1.90;;
10339;SDS011;5215;48.676;9.022;2022-07-18T03:44:23;2.33;;;2.10;;
10339;SDS011;5215;48.676;9.022;2022-07-18T03:46:49;3.72;;;2.22;;
10339;SDS011;5215;48.676;9.022;2022-07-18T03:49:18;2.10;;;1.90;;
10339;SDS011;5215;48.676;9.022;2022-07-18T03:51:45;2.17;;;1.98;;
10339;SDS011;5215;48.676;9.022;2022-07-18T03:54:12;4.07;;;2.17;;
10339;SDS011;5215;48.676;9.022;2022-07-18T03:56:40;4.20;;;2.20;;
10339;SDS011;5215;48.676;9.022;2022-07-18T03:59:06;2.97;;;2.00;;
10339;SDS011;5215;48.676;9.022;2022-07-18T04:01:33;2.25;;;2.05;;
10339;SDS011;5215;48.676;9.022;2022-07-18T04:03:59;3.08;;;2.58;;
10339;SDS011;5215;48.676;9.022;2022-07-18T04:06:26;2.40;;;2.17;;
10339;SDS011;5215;48.676;9.022;2022-07-18T04:08:53;7.80;;;2.17;;
10339;SDS011;5215;48.676;9.022;2022-07-18T04:11:19;2.05;;;1.90;;
10339;SDS011;5215;48.676;9.022;2022-07-18T04:13:50;3.20;;;1.90;;
10339;SDS011;5215;48.676;9.022;2022-07-18T04:16:17;1.83;;;1.70;;
10339;SDS011;5215;48.676;9.022;2022-07-18T04:18:43;3.08;;;2.00;;
10339;SDS011;5215;48.676;9.022;2022-07-18T04:21:10;1.95;;;1.67;;
10339;SDS011;5215;48.676;9.022;2022-07-18T04:23:36;4.05;;;2.35;;
10339;SDS011;5215;48.676;9.022;2022-07-18T04:26:03;1.85;;;1.73;;
10339;SDS011;5215;48.676;9.022;2022-07-18T04:28:30;2.47;;;2.05;;
10339;SDS011;5215;48.676;9.022;2022-07-18T04:30:58;2.55;;;1.80;;
10339;SDS011;5215;48.676;9.022;2022-07-18T04:33:24;1.92;;;1.83;;
10339;SDS011;5215;48.676;9.022;2022-07-18T04:35:51;2.00;;;1.90;;
10339;SDS011;5215;48.676;9.022;2022-07-18T04:38:18;2.00;;;1.83;;
10339;SDS011;5215;48.676;9.022;2022-07-18T04:40:44;4.32;;;2.08;;
10339;SDS011;5215;48.676;9.022;2022-07-18T04:43:11;3.65;;;2.08;;
10339;SDS011;5215;48.676;9.022;2022-07-18T04:45:37;2.25;;;1.90;;
10339;SDS011;5215;48.676;9.022;2022-07-18T04:48:06;4.05;;;2.20;;
10339;SDS011;5215;48.676;9.022;2022-07-18T04:50:33;2.20;;;2.00;;
10339;SDS011;5215;48.676;9.022;2022-07-18T04:52:59;4.57;;;2.30;;
10339;SDS011;5215;48.676;9.022;2022-07-18T04:55:26;3.13;;;2.30;;
10339;SDS011;5215;48.676;9.022;2022-07-18T04:57:54;2.97;;;2.15;;
10339;SDS011;5215;48.676;9.022;2022-07-18T05:00:21;2.88;;;2.00;;
10339;SDS011;5215;48.676;9.022;2022-07-18T05:02:50;4.20;;;2.13;;
10339;SDS011;5215;48.676;9.022;2022-07-18T05:05:20;3.95;;;2.10;;
10339;SDS011;5215;48.676;9.022;2022-07-18T05:07:47;2.70;;;2.00;;
10339;SDS011;5215;48.676;9.022;2022-07-18T05:10:15;4.43;;;2.03;;
10339;SDS011;5215;48.676;9.022;2022-07-18T05:12:43;4.40;;;2.03;;
10339;SDS011;5215;48.676;9.022;2022-07-18T05:15:11;1.70;;;1.60;;
10339;SDS011;5215;48.676;9.022;2022-07-18T05:17:40;2.55;;;1.75;;
10339;SDS011;5215;48.676;9.022;2022-07-18T05:20:08;2.22;;;2.03;;
10339;SDS011;5215;48.676;9.022;2022-07-18T05:22:37;2.97;;;2.10;;
10339;SDS011;5215;48.676;9.022;2022-07-18T05:25:05;2.05;;;1.85;;
10339;SDS011;5215;48.676;9.022;2022-07-18T05:27:32;2.28;;;2.05;;
10339;SDS011;5215;48.676;9.022;2022-07-18T05:30:00;2.83;;;1.80;;
10339;SDS011;5215;48.676;9.022;2022-07-18T05:32:27;3.03;;;1.80;;
10339;SDS011;5215;48.676;9.022;2022-07-18T05:34:54;1.80;;;1.65;;
10339;SDS011;5215;48.676;9.022;2022-07-18T05:37:21;3.17;;;1.90;;
10339;SDS011;5215;48.676;9.022;2022-07-18T05:39:49;1.95;;;1.63;;
10339;SDS011;5215;48.676;9.022;2022-07-18T05:42:16;2.60;;;1.60;;
10339;SDS011;5215;48.676;9.022;2022-07-18T05:44:43;3.50;;;2.25;;
10339;SDS011;5215;48.676;9.022;2022-07-18T05:47:10;2.95;;;1.80;;
10339;SDS011;5215;48.676;9.022;2022-07-18T05:49:38;2.58;;;1.83;;
10339;SDS011;5215;48.676;9.022;2022-07-18T05:52:06;2.53;;;2.08;;
10339;SDS011;5215;48.676;9.022;2022-07-18T05:54:33;2.63;;;2.00;;
10339;SDS011;5215;48.676;9.022;2022-07-18T05:57:01;2.42;;;1.83;;
10339;SDS011;5215;48.676;9.022;2022-07-18T05:59:28;3.20;;;1.88;;
10339;SDS011;5215;48.676;9.022;2022-07-18T06:01:54;2.38;;;2.03;;
10339;SDS011;5215;48.676;9.022;2022-07-18T06:04:21;3.03;;;1.80;;
10339;SDS011;5215;48.676;9.022;2022-07-18T06:06:47;2.88;;;1.60;;
10339;SDS011;5215;48.676;9.022;2022-07-18T06:09:15;3.13;;;2.25;;
10339;SDS011;5215;48.676;9.022;2022-07-18T06:11:42;4.45;;;2.08;;
10339;SDS011;5215;48.676;9.022;2022-07-18T06:14:10;2.35;;;1.90;;
10339;SDS011;5215;48.676;9.022;2022-07-18T06:16:37;5.13;;;2.40;;
10339;SDS011;5215;48.676;9.022;2022-07-18T06:19:04;2.13;;;1.92;;
10339;SDS011;5215;48.676;9.022;2022-07-18T06:21:30;2.13;;;1.80;;
10339;SDS011;5215;48.676;9.022;2022-07-18T06:23:57;3.67;;;1.83;;
10339;SDS011;5215;48.676;9.022;2022-07-18T06:26:23;5.80;;;2.03;;
10339;SDS011;5215;48.676;9.022;2022-07-18T06:28:50;4.38;;;2.00;;
10339;SDS011;5215;48.676;9.022;2022-07-18T06:31:18;2.40;;;1.77;;
10339;SDS011;5215;48.676;9.022;2022-07-18T06:33:45;4.75;;;1.70;;
10339;SDS011;5215;48.676;9.022;2022-07-18T06:36:12;2.33;;;1.75;;
10339;SDS011;5215;48.676;9.022;2022-07-18T06:38:38;1.65;;;1.45;;
10339;SDS011;5215;48.676;9.022;2022-07-18T06:41:06;1.85;;;1.70;;
10339;SDS011;5215;48.676;9.022;2022-07-18T06:43:33;1.85;;;1.75;;
10339;SDS011;5215;48.676;9.022;2022-07-18T06:45:59;2.08;;;1.50;;
10339;SDS011;5215;48.676;9.022;2022-07-18T06:48:27;2.65;;;1.88;;
10339;SDS011;5215;48.676;9.022;2022-07-18T06:50:58;4.35;;;1.77;;
10339;SDS011;5215;48.676;9.022;2022-07-18T06:53:25;3.13;;;1.60;;
10339;SDS011;5215;48.676;9.022;2022-07-18T06:55:52;1.80;;;1.70;;
10339;SDS011;5215;48.676;9.022;2022-07-18T06:58:19;2.58;;;1.73;;
10339;SDS011;5215;48.676;9.022;2022-07-18T07:00:45;1.55;;;1.45;;
10339;SDS011;5215;48.676;9.022;2022-07-18T07:03:12;4.13;;;1.70;;
10339;SDS011;5215;48.676;9.022;2022-07-18T07:05:40;2.53;;;1.52;;
10339;SDS011;5215;48.676;9.022;2022-07-18T07:08:06;1.92;;;1.70;;
10339;SDS011;5215;48.676;9.022;2022-07-18T07:10:33;2.38;;;1.80;;
10339;SDS011;5215;48.676;9.022;2022-07-18T07:13:00;4.65;;;1.98;;
10339;SDS011;5215;48.676;9.022;2022-07-18T07:15:26;2.15;;;1.45;;
10339;SDS011;5215;48.676;9.022;2022-07-18T07:17:53;3.97;;;1.80;;
10339;SDS011;5215;48.676;9.022;2022-07-18T07:20:19;2.95;;;2.17;;
10339;SDS011;5215;48.676;9.022;2022-07-18T07:22:48;4.72;;;2.65;;
10339;SDS011;5215;48.676;9.022;2022-07-18T07:25:17;6.18;;;3.45;;
10339;SDS011;5215;48.676;9.022;2022-07-18T07:27:44;4.55;;;2.00;;
10339;SDS011;5215;48.676;9.022;2022-07-18T07:30:11;2.00;;;1.90;;
10339;SDS011;5215;48.676;9.022;2022-07-18T07:32:40;4.82;;;1.70;;
10339;SDS011;5215;48.676;9.022;2022-07-18T07:35:10;1.38;;;1.27;;
10339;SDS011;5215;48.676;9.022;2022-07-18T07:37:39;1.25;;;1.17;;
10339;SDS011;5215;48.676;9.022;2022-07-18T07:40:07;1.60;;;1.50;;
10339;SDS011;5215;48.676;9.022;2022-07-18T07:42:35;1.55;;;1.45;;
10339;SDS011;5215;48.676;9.022;2022-07-18T07:45:01;1.65;;;1.40;;
10339;SDS011;5215;48.676;9.022;2022-07-18T07:47:28;2.42;;;1.73;;
10339;SDS011;5215;48.676;9.022;2022-07-18T07:49:55;1.63;;;1.52;;
10339;SDS011;5215;48.676;9.022;2022-07-18T07:52:22;1.65;;;1.55;;
10339;SDS011;5215;48.676;9.022;2022-07-18T07:54:49;1.90;;;1.80;;
10339;SDS011;5215;48.676;9.022;2022-07-18T07:57:17;1.95;;;1.67;;
10339;SDS011;5215;48.676;9.022;2022-07-18T07:59:44;2.03;;;1.70;;
10339;SDS011;5215;48.676;9.022;2022-07-18T08:02:11;1.75;;;1.63;;
10339;SDS011;5215;48.676;9.022;2022-07-18T08:04:38;1.52;;;1.42;;
10339;SDS011;5215;48.676;9.022;2022-07-18T08:07:04;1.70;;;1.60;;
10339;SDS011;5215;48.676;9.022;2022-07-18T08:09:31;4.40;;;1.70;;
10339;SDS011;5215;48.676;9.022;2022-07-18T08:11:58;3.13;;;1.63;;
10339;SDS011;5215;48.676;9.022;2022-07-18T08:14:25;4.53;;;1.77;;
10339;SDS011;5215;48.676;9.022;2022-07-18T08:16:52;1.90;;;1.80;;
10339;SDS011;5215;48.676;9.022;2022-07-18T08:19:19;1.70;;;1.40;;
10339;SDS011;5215;48.676;9.022;2022-07-18T08:21:45;3.38;;;1.73;;
10339;SDS011;5215;48.676;9.022;2022-07-18T08:24:12;1.83;;;1.73;;
10339;SDS011;5215;48.676;9.022;2022-07-18T08:26:38;1.85;;;1.70;;
10339;SDS011;5215;48.676;9.022;2022-07-18T08:29:05;2.92;;;1.52;;
10339;SDS011;5215;48.676;9.022;2022-07-18T08:31:34;1.50;;;1.40;;
10339;SDS011;5215;48.676;9.022;2022-07-18T08:34:01;1.80;;;1.70;;
10339;SDS011;5215;48.676;9.022;2022-07-18T08:36:28;2.63;;;1.73;;
10339;SDS011;5215;48.676;9.022;2022-07-18T08:38:54;2.35;;;1.85;;
10339;SDS011;5215;48.676;9.022;2022-07-18T08:41:22;1.67;;;1.55;;
10339;SDS011;5215;48.676;9.022;2022-07-18T08:43:50;2.72;;;1.75;;
10339;SDS011;5215;48.676;9.022;2022-07-18T08:46:18;2.40;;;1.73;;
10339;SDS011;5215;48.676;9.022;2022-07-18T08:48:47;3.75;;;1.80;;
10339;SDS011;5215;48.676;9.022;2022-07-18T08:51:15;2.40;;;1.75;;
10339;SDS011;5215;48.676;9.022;2022-07-18T08:53:42;2.97;;;1.80;;
10339;SDS011;5215;48.676;9.022;2022-07-18T08:56:12;1.95;;;1.60;;
10339;SDS011;5215;48.676;9.022;2022-07-18T08:58:38;2.17;;;1.63;;
10339;SDS011;5215;48.676;9.022;2022-07-18T09:01:05;1.75;;;1.63;;
10339;SDS011;5215;48.676;9.022;2022-07-18T09:03:32;1.50;;;1.40;;
10339;SDS011;5215;48.676;9.022;2022-07-18T09:06:04;2.05;;;1.70;;
10339;SDS011;5215;48.676;9.022;2022-07-18T09:08:32;1.77;;;1.67;;
10339;SDS011;5215;48.676;9.022;2022-07-18T09:11:00;2.42;;;1.48;;
10339;SDS011;5215;48.676;9.022;2022-07-18T09:13:35;1.45;;;1.35;;
10339;SDS011;5215;48.676;9.022;2022-07-18T09:16:03;1.80;;;1.70;;
10339;SDS011;5215;48.676;9.022;2022-07-18T09:18:32;1.60;;;1.50;;
10339;SDS011;5215;48.676;9.022;2022-07-18T09:21:00;1.63;;;1.52;;
10339;SDS011;5215;48.676;9.022;2022-07-18T09:23:30;1.60;;;1.50;;
10339;SDS011;5215;48.676;9.022;2022-07-18T09:25:58;1.80;;;1.70;;
10339;SDS011;5215;48.676;9.022;2022-07-18T09:28:26;10.73;;;2.00;;
10339;SDS011;5215;48.676;9.022;2022-07-18T09:30:53;2.17;;;1.45;;
10339;SDS011;5215;48.676;9.022;2022-07-18T09:33:20;2.70;;;1.50;;
10339;SDS011;5215;48.676;9.022;2022-07-18T09:35:47;1.58;;;1.50;;
10339;SDS011;5215;48.676;9.022;2022-07-18T09:38:16;1.60;;;1.48;;
10339;SDS011;5215;48.676;9.022;2022-07-18T09:40:47;1.90;;;1.80;;
10339;SDS011;5215;48.676;9.022;2022-07-18T09:43:16;2.53;;;1.88;;
10339;SDS011;5215;48.676;9.022;2022-07-18T09:45:44;1.60;;;1.52;;
10339;SDS011;5215;48.676;9.022;2022-07-18T09:48:13;1.60;;;1.50;;
10339;SDS011;5215;48.676;9.022;2022-07-18T09:50:42;2.25;;;1.85;;
10339;SDS011;5215;48.676;9.022;2022-07-18T09:53:16;1.83;;;1.50;;
10339;SDS011;5215;48.676;9.022;2022-07-18T09:55:50;2.63;;;1.60;;
10339;SDS011;5215;48.676;9.022;2022-07-18T09:58:22;1.67;;;1.58;;
10339;SDS011;5215;48.676;9.022;2022-07-18T10:00:50;2.33;;;1.67;;
10339;SDS011;5215;48.676;9.022;2022-07-18T10:03:19;1.40;;;1.30;;
10339;SDS011;5215;48.676;9.022;2022-07-18T10:05:47;1.75;;;1.65;;
10339;SDS011;5215;48.676;9.022;2022-07-18T10:08:15;1.88;;;1.50;;
10339;SDS011;5215;48.676;9.022;2022-07-18T10:10:44;1.80;;;1.50;;
10339;SDS011;5215;48.676;9.022;2022-07-18T10:13:14;2.45;;;1.60;;
10339;SDS011;5215;48.676;9.022;2022-07-18T10:15:41;2.47;;;1.58;;
10339;SDS011;5215;48.676;9.022;2022-07-18T10:18:13;1.45;;;1.35;;
10339;SDS011;5215;48.676;9.022;2022-07-18T10:20:43;1.58;;;1.48;;
10339;SDS011;5215;48.676;9.022;2022-07-18T10:23:15;1.58;;;1.48;;
10339;SDS011;5215;48.676;9.022;2022-07-18T10:25:43;1.73;;;1.42;;
10339;SDS011;5215;48.676;9.022;2022-07-18T10:28:11;4.35;;;1.80;;
10339;SDS011;5215;48.676;9.022;2022-07-18T10:30:44;1.63;;;1.52;;
10339;SDS011;5215;48.676;9.022;2022-07-18T10:36:06;1.20;;;1.20;;
10339;SDS011;5215;48.676;9.022;2022-07-18T10:38:34;1.60;;;1.30;;
10339;SDS011;5215;48.676;9.022;2022-07-18T10:41:05;4.40;;;1.50;;
10339;SDS011;5215;48.676;9.022;2022-07-18T10:43:41;1.50;;;1.40;;
10339;SDS011;5215;48.676;9.022;2022-07-18T10:46:10;1.25;;;1.25;;
10339;SDS011;5215;48.676;9.022;2022-07-18T10:48:54;1.42;;;1.30;;
10339;SDS011;5215;48.676;9.022;2022-07-18T10:51:28;1.23;;;1.13;;
10339;SDS011;5215;48.676;9.022;2022-07-18T10:54:06;1.40;;;1.15;;
10339;SDS011;5215;48.676;9.022;2022-07-18T10:59:37;1.65;;;1.55;;
10339;SDS011;5215;48.676;9.022;2022-07-18T11:02:29;1.27;;;1.17;;
10339;SDS011;5215;48.676;9.022;2022-07-18T11:04:58;0.82;;;0.82;;
10339;SDS011;5215;48.676;9.022;2022-07-18T11:07:25;1.40;;;1.40;;
10339;SDS011;5215;48.676;9.022;2022-07-18T11:09:51;2.97;;;1.40;;
10339;SDS011;5215;48.676;9.022;2022-07-18T11:12:19;1.50;;;1.40;;
10339;SDS011;5215;48.676;9.022;2022-07-18T11:17:55;1.52;;;1.42;;
10339;SDS011;5215;48.676;9.022;2022-07-18T11:20:33;1.30;;;1.20;;
10339;SDS011;5215;48.676;9.022;2022-07-18T11:23:13;2.05;;;1.42;;
10339;SDS011;5215;48.676;9.022;2022-07-18T11:25:45;1.48;;;1.40;;
10339;SDS011;5215;48.676;9.022;2022-07-18T11:28:12;3.30;;;1.30;;
10339;SDS011;5215;48.676;9.022;2022-07-18T11:30:41;1.40;;;1.35;;
10339;SDS011;5215;48.676;9.022;2022-07-18T11:33:22;1.50;;;1.40;;
10339;SDS011;5215;48.676;9.022;2022-07-18T11:35:50;1.35;;;1.25;;
10339;SDS011;5215;48.676;9.022;2022-07-18T11:38:17;1.60;;;1.30;;
10339;SDS011;5215;48.676;9.022;2022-07-18T11:40:51;1.45;;;1.35;;
10339;SDS011;5215;48.676;9.022;2022-07-18T11:43:21;1.60;;;1.50;;
10339;SDS011;5215;48.676;9.022;2022-07-18T11:45:59;1.30;;;1.20;;
10339;SDS011;5215;48.676;9.022;2022-07-18T11:48:27;2.20;;;1.58;;
10339;SDS011;5215;48.676;9.022;2022-07-18T11:50:54;1.50;;;1.27;;
10339;SDS011;5215;48.676;9.022;2022-07-18T11:53:20;1.33;;;1.23;;
10339;SDS011;5215;48.676;9.022;2022-07-18T11:55:47;1.80;;;1.40;;
10339;SDS011;5215;48.676;9.022;2022-07-18T11:58:15;1.35;;;1.30;;
10339;SDS011;5215;48.676;9.022;2022-07-18T12:00:43;2.67;;;1.50;;
10339;SDS011;5215;48.676;9.022;2022-07-18T12:03:13;1.30;;;1.20;;
10339;SDS011;5215;48.676;9.022;2022-07-18T12:05:41;1.80;;;1.40;;
10339;SDS011;5215;48.676;9.022;2022-07-18T12:08:30;1.10;;;1.10;;
10339;SDS011;5215;48.676;9.022;2022-07-18T12:11:08;1.40;;;1.30;;
10339;SDS011;5215;48.676;9.022;2022-07-18T12:13:40;2.65;;;1.55;;
10339;SDS011;5215;48.676;9.022;2022-07-18T12:16:24;1.80;;;1.27;;
10339;SDS011;5215;48.676;9.022;2022-07-18T12:18:54;1.40;;;1.30;;
10339;SDS011;5215;48.676;9.022;2022-07-18T12:21:22;1.85;;;1.17;;
10339;SDS011;5215;48.676;9.022;2022-07-18T12:23:49;1.40;;;1.30;;
10339;SDS011;5215;48.676;9.022;2022-07-18T12:26:25;1.70;;;1.20;;
10339;SDS011;5215;48.676;9.022;2022-07-18T12:29:03;1.70;;;1.20;;
10339;SDS011;5215;48.676;9.022;2022-07-18T12:31:36;1.50;;;1.40;;
10339;SDS011;5215;48.676;9.022;2022-07-18T12:34:09;1.42;;;1.20;;
10339;SDS011;5215;48.676;9.022;2022-07-18T12:36:52;1.23;;;1.13;;
10339;SDS011;5215;48.676;9.022;2022-07-18T12:39:26;1.05;;;1.05;;
10339;SDS011;5215;48.676;9.022;2022-07-18T12:41:54;1.27;;;1.17;;
10339;SDS011;5215;48.676;9.022;2022-07-18T12:44:22;3.08;;;1.20;;
10339;SDS011;5215;48.676;9.022;2022-07-18T12:46:49;2.53;;;1.33;;
10339;SDS011;5215;48.676;9.022;2022-07-18T12:49:17;1.77;;;1.33;;
10339;SDS011;5215;48.676;9.022;2022-07-18T12:51:44;2.08;;;1.30;;
10339;SDS011;5215;48.676;9.022;2022-07-18T12:54:10;1.58;;;1.48;;
10339;SDS011;5215;48.676;9.022;2022-07-18T12:56:37;3.17;;;1.30;;
10339;SDS011;5215;48.676;9.022;2022-07-18T12:59:04;1.58;;;1.20;;
10339;SDS011;5215;48.676;9.022;2022-07-18T13:01:31;1.85;;;1.50;;
10339;SDS011;5215;48.676;9.022;2022-07-18T13:03:58;1.42;;;1.33;;
10339;SDS011;5215;48.676;9.022;2022-07-18T13:06:26;2.75;;;1.20;;
10339;SDS011;5215;48.676;9.022;2022-07-18T13:08:52;1.50;;;1.40;;
10339;SDS011;5215;48.676;9.022;2022-07-18T13:11:19;2.55;;;1.60;;
10339;SDS011;5215;48.676;9.022;2022-07-18T13:13:46;1.20;;;1.20;;
10339;SDS011;5215;48.676;9.022;2022-07-18T13:16:12;5.72;;;1.83;;
10339;SDS011;5215;48.676;9.022;2022-07-18T13:18:39;3.72;;;1.70;;
10339;SDS011;5215;48.676;9.022;2022-07-18T13:21:06;5.57;;;1.67;;
10339;SDS011;5215;48.676;9.022;2022-07-18T13:23:34;3.53;;;1.67;;
10339;SDS011;5215;48.676;9.022;2022-07-18T13:26:00;1.60;;;1.50;;
10339;SDS011;5215;48.676;9.022;2022-07-18T13:28:27;2.35;;;1.38;;
10339;SDS011;5215;48.676;9.022;2022-07-18T13:30:53;2.05;;;1.52;;
10339;SDS011;5215;48.676;9.022;2022-07-18T13:33:21;1.40;;;1.30;;
10339;SDS011;5215;48.676;9.022;2022-07-18T13:35:47;2.28;;;1.58;;
10339;SDS011;5215;48.676;9.022;2022-07-18T13:38:14;7.93;;;2.00;;
10339;SDS011;5215;48.676;9.022;2022-07-18T13:40:42;3.13;;;1.50;;
10339;SDS011;5215;48.676;9.022;2022-07-18T13:43:08;2.38;;;1.63;;
10339;SDS011;5215;48.676;9.022;2022-07-18T13:45:36;1.80;;;1.70;;
10339;SDS011;5215;48.676;9.022;2022-07-18T13:48:03;2.38;;;1.40;;
10339;SDS011;5215;48.676;9.022;2022-07-18T13:50:30;4.85;;;1.73;;
10339;SDS011;5215;48.676;9.022;2022-07-18T13:52:57;7.15;;;1.85;;
10339;SDS011;5215;48.676;9.022;2022-07-18T13:55:23;2.83;;;1.88;;
10339;SDS011;5215;48.676;9.022;2022-07-18T13:57:51;2.17;;;1.48;;
10339;SDS011;5215;48.676;9.022;2022-07-18T14:00:18;2.25;;;1.90;;
10339;SDS011;5215;48.676;9.022;2022-07-18T14:02:44;1.60;;;1.45;;
10339;SDS011;5215;48.676;9.022;2022-07-18T14:05:11;1.70;;;1.60;;
10339;SDS011;5215;48.676;9.022;2022-07-18T14:07:38;4.70;;;1.77;;
10339;SDS011;5215;48.676;9.022;2022-07-18T14:10:05;1.58;;;1.48;;
10339;SDS011;5215;48.676;9.022;2022-07-18T14:12:33;1.50;;;1.40;;
10339;SDS011;5215;48.676;9.022;2022-07-18T14:15:00;1.60;;;1.50;;
10339;SDS011;5215;48.676;9.022;2022-07-18T14:17:27;3.97;;;1.63;;
10339;SDS011;5215;48.676;9.022;2022-07-18T14:19:55;2.45;;;1.50;;
10339;SDS011;5215;48.676;9.022;2022-07-18T14:22:22;1.38;;;1.38;;
10339;SDS011;5215;48.676;9.022;2022-07-18T14:24:48;3.83;;;1.88;;
10339;SDS011;5215;48.676;9.022;2022-07-18T14:27:15;2.63;;;1.60;;
10339;SDS011;5215;48.676;9.022;2022-07-18T14:29:42;2.00;;;1.60;;
10339;SDS011;5215;48.676;9.022;2022-07-18T14:32:10;1.60;;;1.30;;
10339;SDS011;5215;48.676;9.022;2022-07-18T14:34:37;1.27;;;1.27;;
10339;SDS011;5215;48.676;9.022;2022-07-18T14:37:04;2.50;;;1.63;;
10339;SDS011;5215;48.676;9.022;2022-07-18T14:39:30;3.40;;;2.05;;
10339;SDS011;5215;48.676;9.022;2022-07-18T14:41:57;1.63;;;1.52;;
10339;SDS011;5215;48.676;9.022;2022-07-18T14:44:23;4.22;;;1.40;;
10339;SDS011;5215;48.676;9.022;2022-07-18T14:46:52;1.70;;;1.60;;
10339;SDS011;5215;48.676;9.022;2022-07-18T14:49:20;2.38;;;1.80;;
10339;SDS011;5215;48.676;9.022;2022-07-18T14:51:46;2.28;;;1.50;;
10339;SDS011;5215;48.676;9.022;2022-07-18T14:54:13;2.15;;;1.38;;
10339;SDS011;5215;48.676;9.022;2022-07-18T14:56:39;1.60;;;1.50;;
10339;SDS011;5215;48.676;9.022;2022-07-18T14:59:06;3.08;;;1.48;;
10339;SDS011;5215;48.676;9.022;2022-07-18T15:01:32;2.50;;;1.90;;
10339;SDS011;5215;48.676;9.022;2022-07-18T15:03:59;1.70;;;1.60;;
10339;SDS011;5215;48.676;9.022;2022-07-18T15:06:27;1.70;;;1.60;;
10339;SDS011;5215;48.676;9.022;2022-07-18T15:08:54;1.60;;;1.50;;
10339;SDS011;5215;48.676;9.022;2022-07-18T15:11:20;1.73;;;1.60;;
10339;SDS011;5215;48.676;9.022;2022-07-18T15:13:49;2.58;;;1.80;;